Time;durP1;ratioP1;P1;durP2;ratioP2;P2;SDS_P1;SDS_P2;PMS_P1;PMS_P2;Temp;Humidity;BMP_temperature;BMP_pressure;BME280_temperature;BME280_humidity;BME280_pressure;Samples;Min_cycle;Max_cycle;Signal;HPM_P1;HPM_P2
2023/03/08 00:01:50;;;;;;;3.78;2.00;;;;;;;;;;4720212;30;20057;-93
2023/03/08 00:04:16;;;;;;;2.25;1.50;;;;;;;;;;4721028;30;20056;-92
2023/03/08 00:06:42;;;;;;;1.90;1.65;;;;;;;;;;4720506;30;20103;-94
2023/03/08 00:09:09;;;;;;;3.10;1.75;;;;;;;;;;4721074;30;20064;-93
2023/03/08 00:11:35;;;;;;;1.90;1.70;;;;;;;;;;4720350;30;20053;-94
2023/03/08 00:14:02;;;;;;;2.83;1.95;;;;;;;;;;4720195;30;20057;-94
2023/03/08 00:16:28;;;;;;;3.40;1.40;;;;;;;;;;4720611;30;20068;-95
2023/03/08 00:18:54;;;;;;;2.97;1.50;;;;;;;;;;4720672;30;20074;-93
2023/03/08 00:21:20;;;;;;;1.35;1.25;;;;;;;;;;4720238;30;20139;-95
2023/03/08 00:23:47;;;;;;;6.28;1.90;;;;;;;;;;4720447;30;20072;-92
2023/03/08 00:26:13;;;;;;;3.78;1.30;;;;;;;;;;4720302;30;20126;-93
2023/03/08 00:28:40;;;;;;;1.75;1.40;;;;;;;;;;4719860;30;20064;-94
2023/03/08 00:31:07;;;;;;;4.53;2.15;;;;;;;;;;4720499;30;20064;-92
2023/03/08 00:33:33;;;;;;;1.98;1.77;;;;;;;;;;4720134;30;20451;-91
2023/03/08 00:36:01;;;;;;;3.40;1.40;;;;;;;;;;4834250;24;20063;-91
2023/03/08 00:38:28;;;;;;;3.17;2.17;;;;;;;;;;4754641;30;20071;-90
2023/03/08 00:40:54;;;;;;;1.90;1.38;;;;;;;;;;4755123;30;20052;-93
2023/03/08 00:43:20;;;;;;;3.85;1.70;;;;;;;;;;4755265;30;20048;-92
2023/03/08 00:45:47;;;;;;;2.90;1.23;;;;;;;;;;4755320;30;20051;-92
2023/03/08 00:48:13;;;;;;;2.35;1.40;;;;;;;;;;4755278;30;20167;-91
2023/03/08 00:50:39;;;;;;;4.20;1.40;;;;;;;;;;4755647;30;20055;-92
2023/03/08 00:53:05;;;;;;;4.75;1.92;;;;;;;;;;4755131;30;20056;-93
2023/03/08 00:55:32;;;;;;;1.52;1.42;;;;;;;;;;4755591;30;20052;-94
2023/03/08 00:57:58;;;;;;;1.73;1.20;;;;;;;;;;4755139;30;20051;-95
2023/03/08 01:00:24;;;;;;;2.53;1.80;;;;;;;;;;4755509;30;20130;-94
2023/03/08 01:02:50;;;;;;;1.80;1.38;;;;;;;;;;4755479;30;20081;-94
2023/03/08 01:05:16;;;;;;;3.88;2.03;;;;;;;;;;4755329;30;20116;-94
2023/03/08 01:07:42;;;;;;;2.30;1.40;;;;;;;;;;4755365;30;20070;-94
2023/03/08 01:10:14;;;;;;;3.42;1.23;;;;;;;;;;4754989;30;20052;-95
2023/03/08 01:12:40;;;;;;;1.30;1.20;;;;;;;;;;4755678;30;20123;-94
2023/03/08 01:15:07;;;;;;;5.00;1.23;;;;;;;;;;4755071;30;20426;-94
2023/03/08 01:17:33;;;;;;;2.70;1.20;;;;;;;;;;4755505;30;20063;-93
2023/03/08 01:19:59;;;;;;;19.30;4.13;;;;;;;;;;4755033;30;20051;-94
2023/03/08 01:22:25;;;;;;;1.85;1.08;;;;;;;;;;4770717;30;20078;-95
2023/03/08 01:25:10;;;;;;;2.63;0.98;;;;;;;;;;4755147;30;20063;-95
2023/03/08 01:27:39;;;;;;;1.38;0.95;;;;;;;;;;4755453;30;20067;-95
2023/03/08 01:30:05;;;;;;;2.63;1.40;;;;;;;;;;4755032;30;20048;-94
2023/03/08 01:32:31;;;;;;;2.13;1.02;;;;;;;;;;4755093;30;20106;-95
2023/03/08 01:35:03;;;;;;;1.23;1.10;;;;;;;;;;4754345;30;20051;-93
2023/03/08 01:37:48;;;;;;;0.85;0.85;;;;;;;;;;4772160;30;20064;-90
2023/03/08 01:40:17;;;;;;;1.20;1.08;;;;;;;;;;4772795;30;20061;-93
2023/03/08 01:42:43;;;;;;;3.92;0.90;;;;;;;;;;4773038;30;20102;-94
2023/03/08 01:45:28;;;;;;;0.70;0.70;;;;;;;;;;4743254;30;20051;-92
2023/03/08 01:47:54;;;;;;;1.27;0.80;;;;;;;;;;4773177;30;20094;-92
2023/03/08 01:50:20;;;;;;;0.95;0.70;;;;;;;;;;4743303;30;20090;-91
2023/03/08 01:52:49;;;;;;;5.50;1.05;;;;;;;;;;4772157;30;20047;-93
2023/03/08 01:55:15;;;;;;;4.70;1.02;;;;;;;;;;4772678;30;20114;-92
2023/03/08 01:57:44;;;;;;;4.50;0.90;;;;;;;;;;4772427;30;20120;-91
2023/03/08 02:00:10;;;;;;;2.90;0.90;;;;;;;;;;4772530;30;20116;-93
2023/03/08 02:02:40;;;;;;;1.10;1.00;;;;;;;;;;4771861;30;20055;-93
2023/03/08 02:05:06;;;;;;;8.05;1.00;;;;;;;;;;4771778;30;20060;-92
2023/03/08 02:07:32;;;;;;;1.00;0.90;;;;;;;;;;4772690;30;20093;-93
2023/03/08 02:09:58;;;;;;;1.60;0.85;;;;;;;;;;4772036;30;20060;-93
2023/03/08 02:12:25;;;;;;;0.60;0.60;;;;;;;;;;4771535;30;20063;-91
2023/03/08 02:14:52;;;;;;;1.40;0.70;;;;;;;;;;4771638;30;20052;-91
2023/03/08 02:17:18;;;;;;;1.48;0.70;;;;;;;;;;4771710;30;20529;-92
2023/03/08 02:19:48;;;;;;;0.73;0.70;;;;;;;;;;4772039;30;20123;-93
2023/03/08 02:22:15;;;;;;;0.90;0.90;;;;;;;;;;4772084;30;20147;-90
2023/03/08 02:24:42;;;;;;;1.27;0.80;;;;;;;;;;4771390;30;20052;-92
2023/03/08 02:27:14;;;;;;;2.38;0.70;;;;;;;;;;4771812;30;20102;-90
2023/03/08 02:29:40;;;;;;;2.83;0.90;;;;;;;;;;4771807;30;20074;-91
2023/03/08 02:32:06;;;;;;;0.70;0.70;;;;;;;;;;4771524;30;20047;-93
2023/03/08 02:34:33;;;;;;;0.68;0.68;;;;;;;;;;4771956;30;20150;-91
2023/03/08 02:36:59;;;;;;;0.75;0.60;;;;;;;;;;4771220;30;20052;-91
2023/03/08 02:39:25;;;;;;;0.77;0.77;;;;;;;;;;4742051;30;20051;-91
2023/03/08 02:41:52;;;;;;;2.53;0.82;;;;;;;;;;4771443;30;20209;-91
2023/03/08 02:44:18;;;;;;;1.10;0.80;;;;;;;;;;4771298;30;20076;-90
2023/03/08 02:46:44;;;;;;;1.80;0.90;;;;;;;;;;4771022;30;20138;-91
2023/03/08 02:49:10;;;;;;;3.50;1.00;;;;;;;;;;4741729;30;20055;-92
2023/03/08 02:51:36;;;;;;;0.70;0.70;;;;;;;;;;4771411;30;20066;-91
2023/03/08 02:54:02;;;;;;;1.02;0.95;;;;;;;;;;4741833;30;20052;-92
2023/03/08 02:56:28;;;;;;;4.50;0.98;;;;;;;;;;4742434;30;20109;-91
2023/03/08 02:58:54;;;;;;;7.13;1.02;;;;;;;;;;4741690;30;20089;-91
2023/03/08 03:01:20;;;;;;;0.82;0.80;;;;;;;;;;4771150;30;20052;-91
2023/03/08 03:03:46;;;;;;;2.58;1.20;;;;;;;;;;4741434;30;20055;-92
2023/03/08 03:06:17;;;;;;;2.28;1.05;;;;;;;;;;4741660;30;20413;-91
2023/03/08 03:08:43;;;;;;;1.65;0.80;;;;;;;;;;4772098;30;20055;-93
2023/03/08 03:11:12;;;;;;;1.35;1.25;;;;;;;;;;4741775;30;20060;-91
2023/03/08 03:13:38;;;;;;;4.00;0.90;;;;;;;;;;4774840;30;20060;-91
2023/03/08 03:16:08;;;;;;;1.70;1.00;;;;;;;;;;4775812;30;20055;-90
2023/03/08 03:18:34;;;;;;;3.72;1.10;;;;;;;;;;4772522;30;20051;-92
2023/03/08 03:21:04;;;;;;;5.47;1.75;;;;;;;;;;4771395;30;20142;-91
2023/03/08 03:23:30;;;;;;;1.35;0.90;;;;;;;;;;4770792;30;20068;-91
2023/03/08 03:25:56;;;;;;;0.88;0.88;;;;;;;;;;4770726;30;20063;-92
2023/03/08 03:28:22;;;;;;;2.58;1.10;;;;;;;;;;4741230;30;20056;-90
2023/03/08 03:30:48;;;;;;;1.50;1.17;;;;;;;;;;4771539;30;20078;-89
2023/03/08 03:33:14;;;;;;;2.85;1.48;;;;;;;;;;4770789;30;20121;-91
2023/03/08 03:35:41;;;;;;;1.48;1.38;;;;;;;;;;4741189;30;20060;-91
2023/03/08 03:38:07;;;;;;;3.40;1.40;;;;;;;;;;4740863;30;20572;-91
2023/03/08 03:40:33;;;;;;;2.80;1.20;;;;;;;;;;4755380;30;20051;-89
2023/03/08 03:42:59;;;;;;;1.05;0.93;;;;;;;;;;4770597;30;20506;-91
2023/03/08 03:45:25;;;;;;;2.45;1.73;;;;;;;;;;4770337;30;20059;-92
2023/03/08 03:47:51;;;;;;;2.83;1.30;;;;;;;;;;4741339;30;20060;-91
2023/03/08 03:50:17;;;;;;;2.22;1.45;;;;;;;;;;4770362;30;20055;-92
2023/03/08 03:52:43;;;;;;;1.17;1.08;;;;;;;;;;4770697;30;20116;-88
2023/03/08 03:55:09;;;;;;;1.60;1.00;;;;;;;;;;4770401;30;20055;-90
2023/03/08 03:57:35;;;;;;;6.18;2.05;;;;;;;;;;4769641;30;20060;-92
2023/03/08 04:00:02;;;;;;;2.58;1.10;;;;;;;;;;4769687;30;20058;-92
2023/03/08 04:02:28;;;;;;;2.75;1.08;;;;;;;;;;4770550;30;20094;-90
2023/03/08 04:04:54;;;;;;;0.88;0.85;;;;;;;;;;4740991;30;20500;-93
2023/03/08 04:07:20;;;;;;;3.63;1.10;;;;;;;;;;4770092;30;20060;-90
2023/03/08 04:09:47;;;;;;;5.00;1.20;;;;;;;;;;4770156;30;20066;-93
2023/03/08 04:12:13;;;;;;;1.05;0.80;;;;;;;;;;4769667;30;20059;-90
2023/03/08 04:14:39;;;;;;;2.00;1.00;;;;;;;;;;4770004;30;20582;-91
2023/03/08 04:17:06;;;;;;;2.90;0.90;;;;;;;;;;4755033;30;20081;-91
2023/03/08 04:19:32;;;;;;;0.82;0.80;;;;;;;;;;4770027;30;20482;-91
2023/03/08 04:21:58;;;;;;;3.10;1.30;;;;;;;;;;4740157;30;20059;-90
2023/03/08 04:24:24;;;;;;;3.63;1.20;;;;;;;;;;4769960;30;20091;-90
2023/03/08 04:26:53;;;;;;;4.13;1.33;;;;;;;;;;4740937;30;20048;-91
2023/03/08 04:29:22;;;;;;;2.95;1.20;;;;;;;;;;4769541;30;20064;-91
2023/03/08 04:31:49;;;;;;;4.15;1.10;;;;;;;;;;4769679;30;20121;-90
2023/03/08 04:34:15;;;;;;;0.90;0.90;;;;;;;;;;4770069;30;20051;-90
2023/03/08 04:36:41;;;;;;;1.95;1.17;;;;;;;;;;4769962;30;20201;-90
2023/03/08 04:39:07;;;;;;;7.13;1.42;;;;;;;;;;4770080;30;20510;-92
2023/03/08 04:41:33;;;;;;;2.83;0.93;;;;;;;;;;4769353;30;20056;-91
2023/03/08 04:43:59;;;;;;;5.00;1.75;;;;;;;;;;4739913;30;20064;-90
2023/03/08 04:46:26;;;;;;;2.25;1.20;;;;;;;;;;4739723;30;20055;-92
2023/03/08 04:48:54;;;;;;;1.92;1.40;;;;;;;;;;4769486;30;20450;-90
2023/03/08 04:51:21;;;;;;;4.63;1.15;;;;;;;;;;4769164;30;20062;-90
2023/03/08 04:53:47;;;;;;;1.50;1.25;;;;;;;;;;4769298;30;20121;-90
2023/03/08 04:56:13;;;;;;;1.45;1.10;;;;;;;;;;4769328;30;20121;-89
2023/03/08 04:58:40;;;;;;;1.77;1.27;;;;;;;;;;4739675;30;20517;-90
2023/03/08 05:01:10;;;;;;;3.60;2.55;;;;;;;;;;4769954;30;20099;-90
2023/03/08 05:03:37;;;;;;;2.67;1.10;;;;;;;;;;4769120;30;20510;-90
2023/03/08 05:06:03;;;;;;;4.28;1.40;;;;;;;;;;4769601;30;20132;-90
2023/03/08 05:08:29;;;;;;;1.58;1.15;;;;;;;;;;4740180;30;20438;-90
2023/03/08 05:10:59;;;;;;;2.08;1.08;;;;;;;;;;4742943;30;20067;-89
2023/03/08 05:13:29;;;;;;;4.88;1.40;;;;;;;;;;4772791;30;20146;-90
2023/03/08 05:15:55;;;;;;;2.08;1.63;;;;;;;;;;4772802;30;20059;-91
2023/03/08 05:18:22;;;;;;;1.42;1.33;;;;;;;;;;4772513;30;20056;-91
2023/03/08 05:20:58;;;;;;;3.88;1.02;;;;;;;;;;4773209;30;20048;-90
2023/03/08 05:23:25;;;;;;;9.00;1.40;;;;;;;;;;4746625;30;20134;-89
2023/03/08 05:25:52;;;;;;;2.88;0.98;;;;;;;;;;4746076;30;20083;-91
2023/03/08 05:28:18;;;;;;;2.50;1.58;;;;;;;;;;4772824;30;20059;-89
2023/03/08 05:30:44;;;;;;;6.15;1.88;;;;;;;;;;4772418;30;20055;-89
2023/03/08 05:33:11;;;;;;;6.57;1.17;;;;;;;;;;4743111;30;20106;-89
2023/03/08 05:35:37;;;;;;;3.80;1.40;;;;;;;;;;4772178;30;20063;-90
2023/03/08 05:38:03;;;;;;;3.53;1.45;;;;;;;;;;4742702;30;20147;-90
2023/03/08 05:40:29;;;;;;;1.58;1.30;;;;;;;;;;4742777;30;20052;-90
2023/03/08 05:42:55;;;;;;;1.23;1.13;;;;;;;;;;4772344;30;20055;-89
2023/03/08 05:45:21;;;;;;;2.03;1.08;;;;;;;;;;4772280;30;20060;-90
2023/03/08 05:47:47;;;;;;;3.35;1.10;;;;;;;;;;4742418;30;20056;-90
2023/03/08 05:50:13;;;;;;;1.52;1.42;;;;;;;;;;4742447;30;20143;-89
2023/03/08 05:52:41;;;;;;;1.63;1.10;;;;;;;;;;4771625;30;20055;-90
2023/03/08 05:55:07;;;;;;;1.52;1.10;;;;;;;;;;4757533;30;20063;-90
2023/03/08 05:57:35;;;;;;;8.35;2.22;;;;;;;;;;4772026;30;20459;-90
2023/03/08 06:00:03;;;;;;;1.60;1.20;;;;;;;;;;4743168;30;20052;-89
2023/03/08 06:02:29;;;;;;;3.40;1.58;;;;;;;;;;4772189;30;20107;-89
2023/03/08 06:04:55;;;;;;;2.55;1.30;;;;;;;;;;4772006;30;20080;-90
2023/03/08 06:07:21;;;;;;;2.05;1.42;;;;;;;;;;4771342;30;20047;-89
2023/03/08 06:09:54;;;;;;;5.75;1.40;;;;;;;;;;4771454;30;20107;-90
2023/03/08 06:12:20;;;;;;;3.08;1.35;;;;;;;;;;4741903;30;20051;-89
2023/03/08 06:14:46;;;;;;;3.22;1.30;;;;;;;;;;4771575;30;20059;-90
2023/03/08 06:17:12;;;;;;;1.25;1.15;;;;;;;;;;4742087;30;20058;-89
2023/03/08 06:19:41;;;;;;;1.73;1.23;;;;;;;;;;4741789;30;20484;-90
2023/03/08 06:22:07;;;;;;;2.00;1.20;;;;;;;;;;4740977;30;20055;-90
2023/03/08 06:24:33;;;;;;;1.08;0.95;;;;;;;;;;4741599;30;20059;-90
2023/03/08 06:27:02;;;;;;;2.15;1.60;;;;;;;;;;4741538;30;20048;-90
2023/03/08 06:29:28;;;;;;;1.58;1.23;;;;;;;;;;4771830;30;20076;-89
2023/03/08 06:31:54;;;;;;;3.38;1.45;;;;;;;;;;4756514;30;20055;-89
2023/03/08 06:34:20;;;;;;;7.68;2.00;;;;;;;;;;4741751;30;20068;-89
2023/03/08 06:36:46;;;;;;;2.10;1.25;;;;;;;;;;4771576;30;20476;-90
2023/03/08 06:39:12;;;;;;;4.32;1.42;;;;;;;;;;4741942;30;20109;-90
2023/03/08 06:41:38;;;;;;;6.25;1.65;;;;;;;;;;4741907;30;20058;-90
2023/03/08 06:44:05;;;;;;;3.58;1.50;;;;;;;;;;4771099;30;20051;-89
2023/03/08 06:46:31;;;;;;;2.25;1.48;;;;;;;;;;4741426;30;20456;-89
2023/03/08 06:48:57;;;;;;;1.90;1.58;;;;;;;;;;4756158;30;20169;-89
2023/03/08 06:51:23;;;;;;;6.18;2.38;;;;;;;;;;4741618;30;20060;-89
2023/03/08 06:53:49;;;;;;;22.13;4.95;;;;;;;;;;4770903;30;20202;-89
2023/03/08 06:56:16;;;;;;;55.70;9.23;;;;;;;;;;4741584;30;20146;-89
2023/03/08 06:58:42;;;;;;;11.45;3.38;;;;;;;;;;4770591;30;20142;-89
2023/03/08 07:01:08;;;;;;;4.07;1.30;;;;;;;;;;4770720;30;20406;-89
2023/03/08 07:03:35;;;;;;;9.32;1.80;;;;;;;;;;4770316;30;20051;-89
2023/03/08 07:06:04;;;;;;;7.78;1.38;;;;;;;;;;4770705;30;20387;-89
2023/03/08 07:08:30;;;;;;;1.48;1.10;;;;;;;;;;4770776;30;20067;-89
2023/03/08 07:10:57;;;;;;;2.15;1.27;;;;;;;;;;4770306;30;20513;-89
2023/03/08 07:13:23;;;;;;;1.42;1.30;;;;;;;;;;4740806;30;20051;-89
2023/03/08 07:15:50;;;;;;;4.20;1.67;;;;;;;;;;4770175;30;20097;-89
2023/03/08 07:18:16;;;;;;;3.22;1.63;;;;;;;;;;4770486;30;20064;-90
2023/03/08 07:20:42;;;;;;;5.07;2.13;;;;;;;;;;4741120;30;20059;-89
2023/03/08 07:23:08;;;;;;;4.78;2.20;;;;;;;;;;4770910;30;20572;-90
2023/03/08 07:25:34;;;;;;;7.38;1.60;;;;;;;;;;4770821;30;20078;-89
2023/03/08 07:28:00;;;;;;;1.20;1.10;;;;;;;;;;4770871;30;20091;-89
2023/03/08 07:30:29;;;;;;;6.47;1.80;;;;;;;;;;4741722;30;20135;-94
2023/03/08 07:32:55;;;;;;;6.00;2.95;;;;;;;;;;4772303;30;20060;-92
2023/03/08 07:35:27;;;;;;;8.10;2.95;;;;;;;;;;4771956;30;20055;-92
2023/03/08 07:37:54;;;;;;;2.88;2.10;;;;;;;;;;4807313;24;20417;-93
2023/03/08 07:43:56;;;;;;;2.47;1.92;;;;;;;;;;4773401;30;20049;-94
2023/03/08 07:46:22;;;;;;;5.50;2.70;;;;;;;;;;4743166;30;20055;-96
2023/03/08 07:52:50;;;;;;;3.58;2.20;;;;;;;;;;4776765;30;20117;-93
2023/03/08 07:55:16;;;;;;;2.50;2.30;;;;;;;;;;4757587;30;20055;-93
2023/03/08 07:57:43;;;;;;;2.95;2.38;;;;;;;;;;4756546;30;20506;-92
2023/03/08 08:02:47;;;;;;;5.82;2.80;;;;;;;;;;4772320;30;20058;-95
2023/03/08 08:05:21;;;;;;;4.28;2.92;;;;;;;;;;4743745;30;20059;-95
2023/03/08 08:07:47;;;;;;;;;;;;;;;;;;4761679;30;20075;-94
2023/03/08 08:14:13;;;;;;;5.50;2.85;;;0.00;99.90;;;;;;4773616;30;20525;-95
2023/03/08 08:51:52;;;;;;;4.22;3.28;;;;;;;;;;4783575;30;20537;-95
2023/03/08 08:58:14;;;;;;;9.43;3.60;;;;;;;;;;4797232;24;20062;-96
2023/03/08 09:00:58;;;;;;;5.60;3.38;;;;;;;;;;4767392;24;20034;-95
2023/03/08 09:07:29;;;;;;;7.63;4.25;;;;;;;;;;4774893;24;20150;-93
2023/03/08 09:14:01;;;;;;;;;;;;;;;;;;;;;
2023/03/08 09:19:55;;;;;;;5.43;4.78;;;;;;;;;;4769041;24;20058;-94
2023/03/08 09:22:21;;;;;;;6.80;5.22;;;;;;;;;;4748828;30;20082;-96
2023/03/08 09:24:48;;;;;;;8.20;5.07;;;;;;;;;;4769883;30;20051;-96
2023/03/08 09:27:15;;;;;;;7.38;3.88;;;;;;;;;;4752792;30;20197;-92
2023/03/08 09:33:22;;;;;;;4.72;4.13;;;;;;;;;;4761727;30;20073;-95
2023/03/08 09:35:55;;;;;;;9.27;4.20;;;;;;;;;;4823529;24;20052;-95
2023/03/08 09:38:21;;;;;;;4.70;4.03;;;;;;;;;;4730403;30;20063;-92
2023/03/08 09:41:06;;;;;;;6.78;4.43;;;;;;;;;;4729473;30;20589;-93
2023/03/08 09:50:10;;;;;;;9.02;5.43;;;;;;;;;;4759961;30;20051;-93
2023/03/08 09:52:40;;;;;;;3.97;3.33;;;;;;;;;;4759087;30;20056;-94
2023/03/08 09:55:13;;;;;;;3.95;3.65;;;;;;;;;;4729786;30;20395;-92
2023/03/08 09:57:43;;;;;;;4.03;3.58;;;;;;;;;;4727093;30;20584;-92
2023/03/08 10:00:16;;;;;;;6.07;4.53;;;;;;;;;;4757732;30;20548;-94
2023/03/08 10:02:47;;;;;;;3.85;3.33;;;;;;;;;;4756837;30;20074;-92
2023/03/08 10:05:16;;;;;;;7.97;3.83;;;;;;;;;;4756209;30;20052;-91
2023/03/08 10:07:45;;;;;;;6.55;4.13;;;;;;;;;;4728302;30;20091;-89
2023/03/08 10:10:25;;;;;;;3.70;3.40;;;;;;;;;;4755965;30;20116;-90
2023/03/08 10:12:54;;;;;;;5.97;3.95;;;;;;;;;;4762139;30;20060;-90
2023/03/08 10:15:23;;;;;;;5.85;3.80;;;;;;;;;;4762577;30;20131;-89
2023/03/08 10:17:52;;;;;;;6.45;3.95;;;;;;;;;;4732733;30;20117;-94
2023/03/08 10:20:24;;;;;;;5.90;3.92;;;;;;;;;;4729652;30;20514;-88
2023/03/08 10:23:02;;;;;;;4.57;3.45;;;;;;;;;;4760596;30;20063;-96
2023/03/08 10:25:30;;;;;;;7.85;3.70;;;;;;;;;;4759320;30;20087;-94
2023/03/08 10:27:57;;;;;;;4.22;3.83;;;;;;;;;;4731914;30;20045;-96
2023/03/08 10:30:32;;;;;;;7.78;4.15;;;;;;;;;;4728937;30;20091;-95
2023/03/08 10:32:59;;;;;;;5.65;4.70;;;;;;;;;;4729564;30;20137;-96
2023/03/08 10:35:49;;;;;;;6.47;3.60;;;;;;;;;;4772508;30;20071;-96
2023/03/08 10:38:16;;;;;;;4.43;3.78;;;;;;;;;;4758012;30;20063;-96
2023/03/08 10:40:42;;;;;;;4.45;4.05;;;;;;;;;;4755790;30;20525;-95
2023/03/08 10:43:14;;;;;;;5.75;3.72;;;;;;;;;;4756532;30;20469;-95
2023/03/08 10:45:40;;;;;;;3.15;2.85;;;;;;;;;;4757275;30;20207;-95
2023/03/08 10:48:07;;;;;;;3.55;2.67;;;;;;;;;;4770332;30;20507;-94
2023/03/08 10:50:37;;;;;;;8.13;2.40;;;;;;;;;;4726690;30;20060;-92
2023/03/08 10:53:23;;;;;;;2.30;2.10;;;;;;;;;;4755951;30;20062;-94
2023/03/08 10:55:50;;;;;;;2.47;2.28;;;;;;;;;;4742954;30;20064;-95
2023/03/08 10:58:36;;;;;;;3.55;2.25;;;;;;;;;;4756700;30;20049;-94
2023/03/08 11:01:05;;;;;;;3.22;1.67;;;;;;;;;;4756653;30;20067;-90
2023/03/08 11:03:31;;;;;;;3.38;2.10;;;;;;;;;;4755396;30;20086;-91
2023/03/08 11:06:05;;;;;;;4.18;2.00;;;;;;;;;;4729710;30;20060;-94
2023/03/08 11:08:33;;;;;;;;;;;3.40;99.90;;;;;;4756588;30;20094;-91
2023/03/08 11:10:59;;;;;;;4.05;1.77;;;;;;;;;;4740798;30;19933;-89
2023/03/08 11:13:28;;;;;;;2.38;1.20;;;;;;;;;;4771026;30;20089;-96
2023/03/08 11:16:08;;;;;;;4.95;1.90;;;;;;;;;;4756863;30;20124;-89
2023/03/08 11:18:49;;;;;;;4.88;1.60;;;;;;;;;;4752770;30;20213;-87
2023/03/08 11:21:27;;;;;;;3.72;1.73;;;;;;;;;;4752993;30;20052;-87
2023/03/08 11:24:04;;;;;;;1.73;1.52;;;;;;;;;;4753370;30;20056;-88
2023/03/08 11:26:30;;;;;;;8.95;1.85;;;;;;;;;;4768072;30;20095;-92
2023/03/08 11:29:03;;;;;;;1.92;1.73;;;;;;;;;;4753720;30;20048;-90
2023/03/08 11:31:35;;;;;;;4.15;1.80;;;;;;;;;;4753287;30;20063;-88
2023/03/08 11:34:28;;;;;;;2.58;2.17;;;;;;;;;;4752380;30;20102;-89
2023/03/08 11:36:54;;;;;;;1.70;1.55;;;;;;;;;;4732248;30;20518;-87
2023/03/08 11:39:43;;;;;;;3.55;1.70;;;;;;;;;;4769365;30;20055;-87
2023/03/08 11:42:12;;;;;;;7.82;2.08;;;;;;;;;;4732167;30;20380;-87
2023/03/08 11:44:39;;;;;;;4.72;1.40;;;;;;;;;;4766747;30;20151;-87
2023/03/08 11:47:17;;;;;;;1.92;1.30;;;;;;;;;;4751775;30;20052;-87
2023/03/08 11:50:04;;;;;;;4.13;1.52;;;;;;;;;;4766252;30;20056;-87
2023/03/08 11:52:33;;;;;;;5.57;1.75;;;;;;;;;;4766717;30;20060;-86
2023/03/08 11:55:00;;;;;;;3.50;1.50;;;;;;;;;;4751983;30;20407;-87
2023/03/08 11:57:28;;;;;;;5.15;1.17;;;;;;;;;;4751820;30;20192;-87
2023/03/08 11:59:56;;;;;;;2.58;1.58;;;;;;;;;;4752095;30;20143;-87
2023/03/08 12:02:24;;;;;;;2.97;1.60;;;;;;;;;;4766583;30;20060;-86
2023/03/08 12:05:00;;;;;;;2.97;2.17;;;;;;;;;;4751932;30;20063;-87
2023/03/08 12:07:26;;;;;;;3.97;2.10;;;;;;;;;;4752588;30;20071;-86
2023/03/08 12:10:00;;;;;;;3.88;2.47;;;;;;;;;;4751891;30;20418;-87
2023/03/08 12:12:30;;;;;;;4.43;2.25;;;;;;;;;;4751824;30;20052;-87
2023/03/08 12:15:01;;;;;;;1.55;1.45;;;;;;;;;;4766304;30;20060;-87
2023/03/08 12:17:40;;;;;;;3.78;1.92;;;;;;;;;;4751236;30;20161;-86
2023/03/08 12:20:12;;;;;;;2.90;2.10;;;;;;;;;;4750685;30;20060;-87
2023/03/08 12:22:45;;;;;;;3.70;1.70;;;;;;;;;;4751543;30;20113;-87
2023/03/08 12:25:23;;;;;;;4.97;2.30;;;;;;;;;;4752028;30;20212;-86
2023/03/08 12:27:51;;;;;;;2.58;1.73;;;;;;;;;;4751504;30;20131;-88
2023/03/08 12:30:17;;;;;;;1.70;1.60;;;;;;;;;;4751257;30;20055;-87
2023/03/08 12:32:44;;;;;;;5.80;1.77;;;;;;;;;;4751274;30;20056;-87
2023/03/08 12:35:13;;;;;;;4.88;2.60;;;;;;;;;;4753665;30;20063;-86
2023/03/08 12:37:39;;;;;;;5.93;1.80;;;;;;;;;;4768821;30;20067;-87
2023/03/08 12:40:10;;;;;;;2.63;1.40;;;;;;;;;;4754147;30;20160;-88
2023/03/08 12:42:40;;;;;;;5.20;1.65;;;;;;;;;;4754259;30;20056;-87
2023/03/08 12:45:18;;;;;;;1.58;1.45;;;;;;;;;;4770347;30;20059;-87
2023/03/08 12:47:54;;;;;;;5.00;1.70;;;;;;;;;;4768943;30;20054;-86
2023/03/08 12:50:21;;;;;;;4.82;1.60;;;;;;;;;;4768861;30;20055;-86
2023/03/08 12:52:47;;;;;;;3.83;1.38;;;;;;;;;;4754130;30;20054;-86
2023/03/08 12:55:39;;;;;;;3.22;1.63;;;;;;;;;;4739827;30;20092;-87
2023/03/08 12:58:05;;;;;;;2.20;1.63;;;;;;;;;;4751501;30;20068;-87
2023/03/08 13:00:32;;;;;;;3.08;1.95;;;;;;;;;;4768830;30;20058;-86
2023/03/08 13:03:00;;;;;;;2.60;1.60;;;;;;;;;;4769148;30;20498;-87
2023/03/08 13:05:34;;;;;;;4.28;1.60;;;;;;;;;;4754645;30;20514;-87
2023/03/08 13:08:06;;;;;;;5.53;2.97;;;;;;;;;;4769726;30;20460;-87
2023/03/08 13:10:34;;;;;;;8.63;1.67;;;;;;;;;;4754016;30;20056;-88
2023/03/08 13:13:13;;;;;;;2.25;1.35;;;;;;;;;;4753935;30;20051;-86
2023/03/08 13:15:40;;;;;;;2.53;1.80;;;;;;;;;;4754837;30;20052;-86
2023/03/08 13:18:07;;;;;;;2.85;1.77;;;;;;;;;;4759780;30;20423;-85
2023/03/08 13:20:39;;;;;;;4.40;1.65;;;;;;;;;;4787739;30;20117;-88
2023/03/08 13:23:05;;;;;;;3.17;1.92;;;;;;;;;;4772039;30;20066;-87
2023/03/08 13:25:31;;;;;;;4.90;1.60;;;;;;;;;;4786687;30;20060;-87
2023/03/08 13:28:03;;;;;;;3.20;1.80;;;;;;;;;;4787144;30;20055;-87
2023/03/08 13:30:34;;;;;;;4.15;1.83;;;;;;;;;;4786946;30;20143;-88
2023/03/08 13:33:01;;;;;;;2.17;1.75;;;;;;;;;;4767456;30;20059;-91
2023/03/08 13:35:27;;;;;;;1.92;1.50;;;;;;;;;;4759477;30;20143;-90
2023/03/08 13:37:58;;;;;;;6.75;1.30;;;;;;;;;;4730548;30;20054;-91
2023/03/08 13:40:25;;;;;;;4.53;1.38;;;;;;;;;;4759400;30;20156;-96
2023/03/08 13:43:02;;;;;;;3.45;1.25;;;;;;;;;;4759488;30;20055;-94
2023/03/08 13:45:28;;;;;;;4.75;1.50;;;;;;;;;;4758458;30;20522;-93
2023/03/08 13:47:56;;;;;;;4.15;2.40;;;;;;;;;;4773970;30;20063;-89
2023/03/08 13:50:34;;;;;;;3.55;1.30;;;;;;;;;;4772996;30;20060;-94
2023/03/08 13:53:02;;;;;;;3.13;1.48;;;;;;;;;;4774268;30;20047;-93
2023/03/08 13:55:35;;;;;;;3.50;1.75;;;;;;;;;;4774765;30;20060;-91
2023/03/08 13:58:02;;;;;;;6.35;1.80;;;;;;;;;;4759165;30;20070;-90
2023/03/08 14:00:33;;;;;;;3.40;1.17;;;;;;;;;;4773905;30;20106;-94
2023/03/08 14:03:00;;;;;;;2.67;1.75;;;;;;;;;;4771211;30;20063;-87
2023/03/08 14:05:47;;;;;;;2.53;1.30;;;;;;;;;;4756390;30;20056;-86
2023/03/08 14:08:20;;;;;;;2.15;1.45;;;;;;;;;;4756295;30;20048;-86
2023/03/08 14:10:49;;;;;;;3.63;1.58;;;;;;;;;;4756372;30;20145;-86
2023/03/08 14:13:27;;;;;;;3.35;1.63;;;;;;;;;;4756277;30;20135;-86
2023/03/08 14:15:55;;;;;;;3.53;1.25;;;;;;;;;;4755886;30;20150;-87
2023/03/08 14:18:36;;;;;;;6.20;1.50;;;;;;;;;;4756450;30;20067;-86
2023/03/08 14:21:03;;;;;;;1.80;1.30;;;;;;;;;;4756777;30;20089;-85
2023/03/08 14:23:30;;;;;;;6.68;1.10;;;;;;;;;;4756468;30;20391;-86
2023/03/08 14:25:56;;;;;;;4.07;1.40;;;;;;;;;;4756404;30;20066;-87
2023/03/08 14:28:37;;;;;;;2.65;1.60;;;;;;;;;;4771300;30;20039;-87
2023/03/08 14:31:03;;;;;;;3.65;1.40;;;;;;;;;;4772329;30;20514;-86
2023/03/08 14:33:29;;;;;;;2.10;1.20;;;;;;;;;;4757523;30;20044;-87
2023/03/08 14:35:57;;;;;;;5.82;1.20;;;;;;;;;;4741570;30;20059;-88
2023/03/08 14:38:27;;;;;;;3.25;1.33;;;;;;;;;;4772276;30;20072;-87
2023/03/08 14:40:54;;;;;;;1.20;1.10;;;;;;;;;;4771222;30;20059;-88
2023/03/08 14:43:25;;;;;;;1.58;1.20;;;;;;;;;;4755542;30;20087;-87
2023/03/08 14:45:53;;;;;;;2.95;1.17;;;;;;;;;;4756450;30;20052;-88
2023/03/08 14:48:24;;;;;;;2.50;1.55;;;;;;;;;;4755919;30;20052;-87
2023/03/08 14:50:58;;;;;;;8.23;1.30;;;;;;;;;;4756261;30;20060;-87
2023/03/08 14:53:28;;;;;;;1.88;1.30;;;;;;;;;;4756571;30;20150;-89
2023/03/08 14:55:54;;;;;;;1.17;1.08;;;;;;;;;;4763142;24;20058;-89
2023/03/08 14:58:22;;;;;;;2.25;1.52;;;;;;;;;;4741463;30;20517;-87
2023/03/08 15:00:55;;;;;;;1.50;1.27;;;;;;;;;;4740970;30;20058;-87
2023/03/08 15:03:22;;;;;;;14.57;1.70;;;;;;;;;;4741229;30;20060;-87
2023/03/08 15:05:49;;;;;;;2.10;1.25;;;;;;;;;;4741786;30;20066;-87
2023/03/08 15:08:16;;;;;;;2.03;1.60;;;;;;;;;;4740462;30;20078;-86
2023/03/08 15:10:43;;;;;;;1.95;1.45;;;;;;;;;;4741048;30;20059;-86
2023/03/08 15:13:13;;;;;;;1.48;1.38;;;;;;;;;;4755207;30;20567;-88
2023/03/08 15:15:43;;;;;;;2.55;0.98;;;;;;;;;;4741980;30;20127;-90
2023/03/08 15:18:09;;;;;;;1.48;1.38;;;;;;;;;;4742454;30;20110;-92
2023/03/08 15:20:37;;;;;;;2.17;1.40;;;;;;;;;;4741991;30;20067;-91
2023/03/08 15:23:06;;;;;;;6.72;1.98;;;;;;;;;;4741538;30;20056;-92
2023/03/08 15:25:37;;;;;;;1.50;1.40;;;;;;;;;;4742229;30;20051;-91
2023/03/08 15:28:04;;;;;;;3.70;2.03;;;;;;;;;;4755780;30;20143;-90
2023/03/08 15:30:31;;;;;;;1.17;1.17;;;;;;;;;;4741996;30;20098;-88
2023/03/08 15:32:57;;;;;;;1.52;1.42;;;;;;;;;;4755647;30;20063;-92
2023/03/08 15:35:23;;;;;;;2.90;1.75;;;;;;;;;;4757471;30;20070;-90
2023/03/08 15:37:50;;;;;;;1.63;1.30;;;;;;;;;;4756772;30;20072;-94
2023/03/08 15:40:18;;;;;;;1.52;1.20;;;;;;;;;;4771888;30;20079;-93
2023/03/08 15:42:44;;;;;;;1.98;1.17;;;;;;;;;;4756402;30;20055;-94
2023/03/08 15:45:11;;;;;;;2.22;1.30;;;;;;;;;;4758634;30;20052;-93
2023/03/08 15:47:37;;;;;;;1.83;1.25;;;;;;;;;;4756948;30;20535;-93
2023/03/08 15:50:04;;;;;;;3.30;1.30;;;;;;;;;;4755655;30;20514;-92
2023/03/08 15:52:31;;;;;;;1.58;1.30;;;;;;;;;;4771808;30;20062;-91
2023/03/08 15:54:57;;;;;;;2.30;1.00;;;;;;;;;;4781625;24;20123;-91
2023/03/08 15:57:23;;;;;;;2.55;1.48;;;;;;;;;;4745750;30;20151;-93
2023/03/08 15:59:50;;;;;;;2.03;1.15;;;;;;;;;;4742153;30;20517;-91
2023/03/08 16:02:17;;;;;;;2.58;1.67;;;;;;;;;;4741852;30;20528;-91
2023/03/08 16:04:47;;;;;;;4.47;1.80;;;;;;;;;;4741262;30;20066;-95
2023/03/08 16:07:15;;;;;;;1.83;1.30;;;;;;;;;;4741387;30;20501;-94